Time;durP1;ratioP1;P1;durP2;ratioP2;P2;SDS_P1;SDS_P2;PMS_P1;PMS_P2;Temp;Humidity;BMP_temperature;BMP_pressure;BME280_temperature;BME280_humidity;BME280_pressure;Samples;Min_cycle;Max_cycle;Signal;HPM_P1;HPM_P2
2022/04/12 00:01:19;;;;;;;5.47;4.65;;;7.40;88.60;;;;;;4200794;28;20054;-76
2022/04/12 00:03:21;;;;;;;7.50;5.05;;;7.40;88.20;;;;;;4195020;28;20053;-77
2022/04/12 00:05:23;;;;;;;8.82;5.15;;;7.40;88.20;;;;;;4196029;28;20900;-77
2022/04/12 00:07:31;;;;;;;7.57;5.15;;;7.50;87.00;;;;;;4199939;28;20049;-78
2022/04/12 00:09:33;;;;;;;6.85;3.97;;;7.50;86.00;;;;;;4188983;28;20053;-77
2022/04/12 00:11:35;;;;;;;5.28;4.57;;;7.50;85.20;;;;;;4199330;28;20056;-78
2022/04/12 00:13:37;;;;;;;7.50;3.90;;;7.50;85.00;;;;;;4200002;28;20057;-76
2022/04/12 00:15:39;;;;;;;6.85;4.20;;;7.50;84.50;;;;;;4179517;28;20105;-78
2022/04/12 00:20:02;;;;;;;4.10;3.55;;;7.50;84.40;;;;;;4196221;28;20052;-78
2022/04/12 00:22:04;;;;;;;5.80;4.60;;;7.60;84.60;;;;;;4185952;28;20037;-78
2022/04/12 00:24:07;;;;;;;4.65;4.20;;;7.60;84.70;;;;;;4180096;28;20156;-78
2022/04/12 00:26:08;;;;;;;5.18;3.70;;;7.50;86.00;;;;;;4200250;28;20773;-78
2022/04/12 00:28:12;;;;;;;7.05;4.57;;;7.50;86.80;;;;;;4191881;28;20116;-78
2022/04/12 00:30:13;;;;;;;5.70;3.90;;;7.40;86.60;;;;;;4183295;28;20067;-78
2022/04/12 00:32:15;;;;;;;5.45;3.45;;;7.20;87.60;;;;;;4186318;28;20053;-78
2022/04/12 00:34:17;;;;;;;7.82;3.72;;;7.10;87.90;;;;;;4185614;28;20061;-77
2022/04/12 00:36:19;;;;;;;4.95;4.05;;;7.00;87.70;;;;;;4185888;28;20169;-78
2022/04/12 00:38:23;;;;;;;4.78;3.92;;;7.00;87.40;;;;;;4185928;28;20069;-78
2022/04/12 00:40:26;;;;;;;8.05;3.70;;;7.00;88.00;;;;;;4181363;28;20054;-77
2022/04/12 00:42:28;;;;;;;12.18;4.13;;;7.00;89.00;;;;;;4197916;28;20045;-77
2022/04/12 00:44:29;;;;;;;5.57;4.00;;;6.80;89.60;;;;;;4205790;28;20155;-77
2022/04/12 00:46:31;;;;;;;8.38;3.47;;;6.70;90.10;;;;;;4200852;28;20056;-78
2022/04/12 00:48:34;;;;;;;3.83;3.45;;;6.70;90.40;;;;;;4194547;28;20045;-77
2022/04/12 00:50:37;;;;;;;4.05;3.40;;;6.70;90.20;;;;;;4204318;28;20067;-77
2022/04/12 00:52:48;;;;;;;4.32;3.35;;;6.70;90.40;;;;;;4187333;28;20853;-78
2022/04/12 00:54:50;;;;;;;;;;;6.70;90.10;;;;;;4202947;28;20056;-77
2022/04/12 00:56:52;;;;;;;4.25;3.38;;;6.60;90.20;;;;;;4192846;28;19987;-77
2022/04/12 00:58:55;;;;;;;5.57;3.78;;;6.60;90.00;;;;;;4199177;28;20057;-77
2022/04/12 01:00:56;;;;;;;5.18;4.68;;;6.60;89.70;;;;;;4186570;28;20064;-77
2022/04/12 01:02:58;;;;;;;4.22;3.83;;;6.60;90.00;;;;;;4183722;28;20061;-77
2022/04/12 01:05:02;;;;;;;3.78;3.30;;;6.50;90.20;;;;;;4189934;28;20068;-77
2022/04/12 01:07:04;;;;;;;4.63;3.65;;;6.50;90.20;;;;;;4196723;28;20079;-77
2022/04/12 01:09:06;;;;;;;4.55;3.28;;;6.50;90.60;;;;;;4186822;28;20057;-76
2022/04/12 01:11:08;;;;;;;5.00;3.45;;;6.50;91.10;;;;;;4202835;28;20120;-77
2022/04/12 01:13:11;;;;;;;5.40;3.70;;;6.50;91.40;;;;;;4195327;28;20126;-77
2022/04/12 01:15:23;;;;;;;6.35;3.20;;;6.50;91.50;;;;;;4195968;28;20800;-77
2022/04/12 01:17:25;;;;;;;6.47;3.72;;;6.60;91.50;;;;;;4195627;28;20060;-76
2022/04/12 01:19:26;;;;;;;3.45;3.15;;;6.60;91.50;;;;;;4199581;28;20060;-76
2022/04/12 01:21:35;;;;;;;4.15;3.03;;;6.50;91.60;;;;;;4206404;28;20827;-76
2022/04/12 01:23:58;;;;;;;3.55;2.78;;;6.50;91.60;;;;;;4188715;28;20053;-77
2022/04/12 01:26:01;;;;;;;5.43;3.25;;;6.40;91.70;;;;;;4173789;28;20076;-77
2022/04/12 01:28:03;;;;;;;7.68;3.90;;;6.50;91.80;;;;;;4189694;28;20056;-77
2022/04/12 01:30:06;;;;;;;4.43;3.35;;;6.50;91.60;;;;;;4179634;28;20053;-77
2022/04/12 01:32:08;;;;;;;4.70;3.58;;;6.40;91.60;;;;;;4193295;28;20061;-76
2022/04/12 01:34:10;;;;;;;5.20;3.13;;;6.40;91.40;;;;;;4198897;28;20064;-75
2022/04/12 01:36:12;;;;;;;4.88;3.63;;;6.30;91.40;;;;;;4200675;28;20063;-76
2022/04/12 01:38:14;;;;;;;3.45;3.08;;;6.20;92.00;;;;;;4200454;28;20061;-76
2022/04/12 01:40:15;;;;;;;3.90;3.10;;;6.10;92.30;;;;;;4200497;28;20064;-76
2022/04/12 01:42:17;;;;;;;3.78;3.33;;;6.10;92.40;;;;;;4183436;28;20777;-76
2022/04/12 01:44:19;;;;;;;3.97;3.33;;;6.10;92.50;;;;;;4173926;28;20827;-76
2022/04/12 01:46:20;;;;;;;6.28;3.22;;;6.10;92.60;;;;;;4189691;28;20053;-77
2022/04/12 01:48:24;;;;;;;4.32;3.53;;;6.10;92.70;;;;;;4190844;28;20155;-77
2022/04/12 01:50:25;;;;;;;5.22;3.30;;;6.10;92.70;;;;;;4186031;28;20116;-77
2022/04/12 01:52:27;;;;;;;3.03;2.80;;;6.10;92.80;;;;;;4194824;28;20172;-77
2022/04/12 01:54:29;;;;;;;5.53;3.08;;;6.10;92.80;;;;;;4195289;28;20886;-76
2022/04/12 01:56:32;;;;;;;3.47;2.50;;;6.10;92.80;;;;;;4202579;28;20152;-76
2022/04/12 01:58:35;;;;;;;4.68;3.10;;;6.10;92.80;;;;;;4195104;28;20057;-76
2022/04/12 02:00:37;;;;;;;4.07;2.65;;;6.10;92.80;;;;;;4194494;28;20060;-77
2022/04/12 02:02:39;;;;;;;3.28;2.80;;;6.10;92.80;;;;;;4196040;28;20067;-77
2022/04/12 02:04:41;;;;;;;3.70;3.30;;;6.10;92.80;;;;;;4184859;28;20056;-77
2022/04/12 02:06:42;;;;;;;3.10;2.78;;;6.10;92.90;;;;;;4185245;28;20058;-78
2022/04/12 02:08:44;;;;;;;4.05;2.90;;;6.10;92.90;;;;;;4198053;28;20046;-77
2022/04/12 02:10:46;;;;;;;4.18;2.75;;;6.00;93.00;;;;;;4187212;28;20083;-77
2022/04/12 02:12:49;;;;;;;3.30;3.00;;;6.00;93.00;;;;;;4184466;28;20097;-77
2022/04/12 02:14:51;;;;;;;5.13;2.70;;;6.00;93.00;;;;;;4173251;28;20164;-77
2022/04/12 02:16:53;;;;;;;5.20;3.17;;;5.90;93.20;;;;;;4177050;28;20659;-77
2022/04/12 02:18:54;;;;;;;2.97;2.67;;;5.90;93.30;;;;;;4199263;28;20065;-77
2022/04/12 02:20:56;;;;;;;3.17;2.63;;;5.90;93.30;;;;;;4192357;28;20954;-77
2022/04/12 02:22:58;;;;;;;6.78;3.15;;;5.90;93.30;;;;;;4197498;28;20053;-76
2022/04/12 02:24:59;;;;;;;3.42;3.15;;;5.90;93.20;;;;;;4181045;28;20060;-76
2022/04/12 02:27:01;;;;;;;3.35;3.08;;;5.80;93.30;;;;;;4179451;28;20097;-77
2022/04/12 02:29:03;;;;;;;3.40;3.10;;;5.80;93.30;;;;;;4193521;28;20061;-77
2022/04/12 02:31:09;;;;;;;4.38;3.65;;;5.70;93.50;;;;;;4180255;28;20569;-76
2022/04/12 02:33:11;;;;;;;7.07;3.20;;;5.70;93.60;;;;;;4190483;28;20655;-78
2022/04/12 02:35:13;;;;;;;2.88;2.50;;;5.70;93.60;;;;;;4191533;28;20171;-77
2022/04/12 02:37:15;;;;;;;5.28;3.17;;;5.60;93.80;;;;;;4202406;28;20799;-77
2022/04/12 02:39:16;;;;;;;3.25;3.00;;;5.60;94.00;;;;;;4195501;28;20854;-76
2022/04/12 02:41:18;;;;;;;2.85;2.65;;;5.50;94.00;;;;;;4195733;28;20069;-76
2022/04/12 02:43:20;;;;;;;3.25;3.03;;;5.60;94.00;;;;;;4181004;28;21294;-77
2022/04/12 02:45:21;;;;;;;3.65;3.08;;;5.60;93.90;;;;;;4177167;28;20064;-77
2022/04/12 02:47:25;;;;;;;4.18;3.72;;;5.60;93.90;;;;;;4191609;28;20798;-76
2022/04/12 02:49:27;;;;;;;3.35;3.05;;;5.60;94.00;;;;;;4182489;28;20061;-76
2022/04/12 02:51:28;;;;;;;5.90;3.25;;;5.50;94.00;;;;;;4181275;28;20168;-76
2022/04/12 02:53:30;;;;;;;6.70;3.47;;;5.50;93.90;;;;;;4195920;28;21068;-77
2022/04/12 02:55:32;;;;;;;3.70;3.35;;;5.50;94.00;;;;;;4192941;28;20938;-78
2022/04/12 02:57:33;;;;;;;3.17;2.83;;;5.40;94.20;;;;;;4190489;28;20053;-77
2022/04/12 02:59:35;;;;;;;4.22;3.05;;;5.40;94.20;;;;;;4196164;28;20807;-76
2022/04/12 03:01:37;;;;;;;3.95;3.00;;;5.30;94.30;;;;;;4178384;28;20844;-77
2022/04/12 03:03:39;;;;;;;3.78;3.40;;;5.40;94.40;;;;;;4184065;28;20805;-77
2022/04/12 03:05:40;;;;;;;3.40;3.10;;;5.40;94.50;;;;;;4194827;28;20056;-77
2022/04/12 03:07:42;;;;;;;3.72;3.17;;;5.40;94.40;;;;;;4176714;28;20045;-77
2022/04/12 03:09:44;;;;;;;3.88;3.53;;;5.40;94.50;;;;;;4196382;28;20272;-77
2022/04/12 03:11:45;;;;;;;4.78;3.17;;;5.40;94.50;;;;;;4192591;28;20103;-76
2022/04/12 03:13:48;;;;;;;5.00;3.80;;;5.40;94.50;;;;;;4166370;28;20647;-77
2022/04/12 03:15:50;;;;;;;4.32;3.22;;;5.40;94.50;;;;;;4196591;28;20080;-76
2022/04/12 03:17:52;;;;;;;4.47;3.28;;;5.40;94.60;;;;;;4180527;28;20137;-77
2022/04/12 03:19:53;;;;;;;5.22;3.08;;;5.50;94.60;;;;;;4180649;28;20078;-77
2022/04/12 03:21:55;;;;;;;8.85;3.92;;;5.50;94.50;;;;;;4198398;28;20704;-76
2022/04/12 03:23:57;;;;;;;5.10;4.13;;;5.50;94.90;;;;;;4181959;28;20061;-77
2022/04/12 03:25:58;;;;;;;7.47;3.15;;;5.50;94.10;;;;;;4180274;28;20062;-76
2022/04/12 03:28:00;;;;;;;5.50;3.80;;;5.50;94.20;;;;;;4199417;28;20057;-77
2022/04/12 03:30:04;;;;;;;7.43;4.32;;;5.40;94.20;;;;;;4198624;28;20053;-76
2022/04/12 03:32:06;;;;;;;6.28;4.65;;;5.40;94.30;;;;;;4179993;28;20069;-76
2022/04/12 03:34:08;;;;;;;7.05;4.25;;;5.40;94.70;;;;;;4198378;28;20053;-76
2022/04/12 03:36:10;;;;;;;9.27;3.50;;;5.40;95.00;;;;;;4198887;28;20067;-76
2022/04/12 03:38:13;;;;;;;5.45;3.90;;;5.40;95.10;;;;;;4191942;28;20666;-76
2022/04/12 03:40:15;;;;;;;7.40;3.90;;;5.40;95.20;;;;;;4197870;28;20096;-76
2022/04/12 03:42:18;;;;;;;10.05;3.63;;;5.40;95.20;;;;;;4198577;28;20049;-76
2022/04/12 03:44:20;;;;;;;5.25;3.55;;;5.40;95.20;;;;;;4198966;28;20057;-76
2022/04/12 03:46:21;;;;;;;3.63;3.35;;;5.40;95.10;;;;;;4200699;28;20111;-76
2022/04/12 03:48:23;;;;;;;4.45;3.33;;;5.50;95.10;;;;;;4206271;28;20061;-76
2022/04/12 03:50:25;;;;;;;6.38;3.95;;;5.50;95.00;;;;;;4192837;28;20060;-76
2022/04/12 03:52:27;;;;;;;6.28;3.78;;;5.50;94.60;;;;;;4182997;28;20085;-76
2022/04/12 03:54:29;;;;;;;4.75;3.60;;;5.50;94.70;;;;;;4188296;28;20057;-76
2022/04/12 03:56:30;;;;;;;5.63;4.00;;;5.50;94.90;;;;;;4197328;28;20060;-77
2022/04/12 03:58:36;;;;;;;4.00;3.13;;;5.40;95.00;;;;;;4180807;28;20057;-77
2022/04/12 04:00:37;;;;;;;4.18;3.78;;;5.40;95.20;;;;;;4180892;28;20065;-77
2022/04/12 04:02:39;;;;;;;6.18;3.58;;;5.40;95.20;;;;;;4180076;28;20067;-77
2022/04/12 04:04:41;;;;;;;8.43;3.85;;;5.40;95.20;;;;;;4180962;28;20057;-77
2022/04/12 04:06:43;;;;;;;5.78;3.20;;;5.40;95.20;;;;;;4198719;28;20092;-76
2022/04/12 04:08:45;;;;;;;3.80;3.50;;;5.30;95.30;;;;;;4189009;28;20907;-76
2022/04/12 04:10:47;;;;;;;4.10;3.30;;;5.30;95.40;;;;;;4194441;28;20164;-77
2022/04/12 04:12:54;;;;;;;3.85;3.53;;;5.30;95.40;;;;;;4194546;28;20068;-76
2022/04/12 04:14:56;;;;;;;5.35;3.50;;;5.30;95.50;;;;;;4176307;28;20106;-76
2022/04/12 04:17:00;;;;;;;8.95;4.45;;;5.30;95.50;;;;;;4198077;28;21201;-76
2022/04/12 04:19:02;;;;;;;8.93;4.03;;;5.30;95.50;;;;;;4179732;28;21387;-76
2022/04/12 04:21:04;;;;;;;7.95;4.53;;;5.30;95.50;;;;;;4171448;28;20065;-76
2022/04/12 04:23:06;;;;;;;6.68;4.25;;;5.30;95.70;;;;;;4197859;28;20056;-76
2022/04/12 04:25:10;;;;;;;10.10;4.43;;;5.20;95.60;;;;;;4197713;28;20287;-76
2022/04/12 04:27:12;;;;;;;8.90;4.50;;;5.20;95.50;;;;;;4180174;28;20093;-76
2022/04/12 04:29:13;;;;;;;7.43;5.15;;;5.20;95.60;;;;;;4197086;28;20056;-77
2022/04/12 04:31:15;;;;;;;6.90;4.45;;;5.10;95.40;;;;;;4178036;28;20053;-76
2022/04/12 04:33:22;;;;;;;10.18;5.00;;;5.10;95.20;;;;;;4197591;28;20060;-77
2022/04/12 04:35:24;;;;;;;7.45;4.57;;;5.00;95.60;;;;;;4174087;28;20072;-77
2022/04/12 04:37:26;;;;;;;7.70;4.30;;;5.10;95.40;;;;;;4179906;28;20186;-77
2022/04/12 04:39:28;;;;;;;5.78;4.57;;;5.10;95.20;;;;;;4198367;28;20164;-77
2022/04/12 04:41:30;;;;;;;7.97;4.30;;;5.20;95.40;;;;;;4195811;28;20087;-77
2022/04/12 04:43:31;;;;;;;6.22;4.65;;;5.10;95.50;;;;;;4197758;28;20060;-77
2022/04/12 04:45:37;;;;;;;11.63;4.50;;;5.10;95.50;;;;;;4179567;28;20068;-77
2022/04/12 04:47:53;;;;;;;7.90;5.65;;;5.20;95.20;;;;;;4179702;28;20049;-76
2022/04/12 04:49:55;;;;;;;8.88;5.03;;;5.20;95.10;;;;;;4197852;28;20851;-76
2022/04/12 04:51:56;;;;;;;5.78;4.18;;;5.20;95.10;;;;;;4169591;28;20057;-76
2022/04/12 04:53:58;;;;;;;8.20;5.05;;;5.20;95.20;;;;;;4196717;28;20067;-76
2022/04/12 04:56:00;;;;;;;6.07;3.83;;;5.20;95.30;;;;;;4197599;28;20053;-76
2022/04/12 04:58:02;;;;;;;4.68;3.78;;;5.20;95.50;;;;;;4180012;28;20827;-76
2022/04/12 05:00:05;;;;;;;8.23;4.65;;;5.20;95.70;;;;;;4175274;28;20303;-77
2022/04/12 05:02:07;;;;;;;4.32;3.83;;;5.20;95.70;;;;;;4197470;28;20065;-77
2022/04/12 05:04:09;;;;;;;4.30;3.90;;;5.20;95.70;;;;;;4180592;28;20061;-77
2022/04/12 05:06:10;;;;;;;4.38;3.97;;;5.20;95.70;;;;;;4181288;28;20062;-76
2022/04/12 05:08:12;;;;;;;7.30;4.30;;;5.30;95.60;;;;;;4182932;28;20061;-76
2022/04/12 05:10:16;;;;;;;5.95;3.78;;;5.20;95.50;;;;;;4183190;28;20065;-77
2022/04/12 05:12:18;;;;;;;3.75;3.38;;;5.30;95.50;;;;;;4196399;28;20665;-76
2022/04/12 05:14:20;;;;;;;4.10;3.70;;;5.30;95.40;;;;;;4200045;28;20063;-77
2022/04/12 05:16:21;;;;;;;4.18;3.88;;;5.30;95.30;;;;;;4196768;28;20061;-77
2022/04/12 05:18:23;;;;;;;9.93;4.10;;;5.40;95.30;;;;;;4179939;28;20809;-76
2022/04/12 05:20:26;;;;;;;10.52;4.30;;;5.50;95.30;;;;;;4182805;28;20060;-76
2022/04/12 05:22:28;;;;;;;7.22;4.45;;;5.50;95.20;;;;;;4166064;28;20147;-76
2022/04/12 05:24:29;;;;;;;9.85;5.18;;;5.60;95.10;;;;;;4183883;28;20063;-76
2022/04/12 05:26:31;;;;;;;6.85;4.43;;;5.60;94.70;;;;;;4166637;28;20072;-77
2022/04/12 05:28:33;;;;;;;7.20;4.78;;;5.60;95.30;;;;;;4174624;28;20156;-77
2022/04/12 05:30:35;;;;;;;7.72;3.95;;;5.70;95.10;;;;;;4183438;28;20064;-78
2022/04/12 05:32:37;;;;;;;11.13;4.70;;;5.80;94.80;;;;;;4193716;28;20064;-77
2022/04/12 05:34:40;;;;;;;6.22;4.35;;;5.90;94.70;;;;;;4197087;28;20061;-77
2022/04/12 05:36:41;;;;;;;13.95;4.28;;;6.10;94.30;;;;;;4171477;28;20085;-77
2022/04/12 05:38:43;;;;;;;10.52;4.30;;;6.30;94.10;;;;;;4187619;28;20872;-76
2022/04/12 05:40:45;;;;;;;7.25;4.05;;;6.50;93.80;;;;;;4182594;28;20064;-77
2022/04/12 05:42:47;;;;;;;6.85;3.92;;;6.60;93.30;;;;;;4199071;28;20057;-77
2022/04/12 05:44:49;;;;;;;11.85;4.82;;;6.90;93.00;;;;;;4181938;28;20057;-76
2022/04/12 05:46:51;;;;;;;8.98;4.47;;;7.00;92.60;;;;;;4166932;28;20058;-77
2022/04/12 05:48:53;;;;;;;13.68;5.13;;;7.10;92.30;;;;;;4182653;28;20089;-77
2022/04/12 05:50:54;;;;;;;6.63;4.97;;;7.20;91.90;;;;;;4183516;28;20064;-77
2022/04/12 05:52:57;;;;;;;5.45;4.60;;;7.30;91.60;;;;;;4196898;28;20053;-77
2022/04/12 05:54:58;;;;;;;6.03;4.45;;;7.30;91.30;;;;;;4199621;28;20084;-76
2022/04/12 05:57:00;;;;;;;5.55;4.85;;;7.20;91.90;;;;;;4200145;28;20068;-77
2022/04/12 05:59:02;;;;;;;8.63;4.63;;;7.10;91.90;;;;;;4181953;28;20098;-77
2022/04/12 06:01:03;;;;;;;4.03;3.65;;;7.20;91.70;;;;;;4197200;28;20057;-76
2022/04/12 06:03:06;;;;;;;6.72;4.18;;;7.20;91.80;;;;;;4182404;28;20058;-77
2022/04/12 06:05:08;;;;;;;7.95;5.28;;;7.30;91.60;;;;;;4199753;28;20142;-77
2022/04/12 06:07:10;;;;;;;7.15;4.15;;;7.40;91.40;;;;;;4198716;28;20168;-77
2022/04/12 06:09:11;;;;;;;9.52;4.68;;;7.50;91.60;;;;;;4182916;28;20084;-77
2022/04/12 06:11:13;;;;;;;5.82;3.70;;;7.70;90.70;;;;;;4197663;28;20318;-77
2022/04/12 06:13:15;;;;;;;7.13;4.35;;;7.90;90.60;;;;;;4182479;28;20128;-77
2022/04/12 06:15:19;;;;;;;6.30;5.22;;;8.00;90.20;;;;;;4193988;28;20671;-76
2022/04/12 06:17:21;;;;;;;9.07;4.57;;;8.30;89.70;;;;;;4170249;28;20053;-76
2022/04/12 06:19:23;;;;;;;13.35;6.95;;;8.40;89.80;;;;;;4182568;28;20058;-77
2022/04/12 06:21:25;;;;;;;8.98;4.95;;;8.50;89.00;;;;;;4203510;28;20061;-77
2022/04/12 06:23:28;;;;;;;7.70;4.75;;;8.70;88.30;;;;;;4209599;28;20053;-76
2022/04/12 06:25:29;;;;;;;11.20;5.13;;;8.70;87.70;;;;;;4188502;28;20066;-76
2022/04/12 06:27:40;;;;;;;7.72;5.43;;;8.70;87.30;;;;;;4182404;28;20053;-76
2022/04/12 06:29:42;;;;;;;5.15;4.65;;;8.80;87.50;;;;;;4201890;28;20172;-77
2022/04/12 06:31:44;;;;;;;9.18;5.43;;;8.80;87.30;;;;;;4200106;28;20084;-76
2022/04/12 06:33:46;;;;;;;7.00;4.60;;;8.90;87.40;;;;;;4195265;28;20053;-78
2022/04/12 06:35:47;;;;;;;8.18;5.03;;;9.00;87.10;;;;;;4176811;28;20057;-76
2022/04/12 06:37:53;;;;;;;5.70;5.07;;;9.10;86.60;;;;;;4177551;28;20053;-77
2022/04/12 06:39:59;;;;;;;9.15;5.18;;;9.10;87.00;;;;;;4198453;28;20057;-77
2022/04/12 06:42:01;;;;;;;6.57;4.75;;;9.10;87.60;;;;;;4180312;28;20061;-76
2022/04/12 06:44:03;;;;;;;5.55;4.85;;;9.20;87.40;;;;;;4180491;28;20056;-75
2022/04/12 06:46:04;;;;;;;10.35;6.05;;;9.30;87.10;;;;;;4194987;28;20060;-75
2022/04/12 06:48:06;;;;;;;7.47;5.75;;;9.40;87.40;;;;;;4194397;28;20745;-76
2022/04/12 06:50:10;;;;;;;6.93;5.55;;;9.50;86.50;;;;;;4196904;28;20730;-75
2022/04/12 06:52:13;;;;;;;10.43;5.85;;;9.50;86.80;;;;;;4197332;28;20638;-76
2022/04/12 06:54:14;;;;;;;10.60;6.18;;;9.70;86.60;;;;;;4198623;28;20068;-75
2022/04/12 06:56:17;;;;;;;8.82;5.65;;;9.80;86.00;;;;;;4199248;28;20087;-76
2022/04/12 06:58:18;;;;;;;7.22;5.80;;;9.80;86.10;;;;;;4199154;28;20747;-76
2022/04/12 07:00:20;;;;;;;11.80;5.82;;;9.90;84.60;;;;;;4193766;28;20048;-76
2022/04/12 07:02:22;;;;;;;8.48;5.40;;;10.00;85.10;;;;;;4198728;28;20053;-76
2022/04/12 07:04:24;;;;;;;9.70;5.30;;;10.20;84.40;;;;;;4186208;28;20172;-77
2022/04/12 07:06:26;;;;;;;4.35;3.95;;;10.30;84.40;;;;;;4196954;28;20057;-77
2022/04/12 07:08:27;;;;;;;5.75;4.38;;;10.40;82.60;;;;;;4180948;28;20057;-77
2022/04/12 07:10:29;;;;;;;4.35;3.13;;;10.60;78.10;;;;;;4170726;28;20069;-77
2022/04/12 07:12:31;;;;;;;5.65;3.30;;;10.80;76.20;;;;;;4194546;28;20764;-77
2022/04/12 07:14:33;;;;;;;4.78;3.05;;;11.00;74.50;;;;;;4180536;28;20057;-77
2022/04/12 07:16:34;;;;;;;8.48;3.65;;;11.10;74.90;;;;;;4199179;28;20061;-77
2022/04/12 07:18:37;;;;;;;6.20;3.78;;;11.20;74.90;;;;;;4199245;28;20788;-76
2022/04/12 07:20:39;;;;;;;3.85;3.47;;;11.30;72.90;;;;;;4184052;28;20057;-77
2022/04/12 07:22:41;;;;;;;6.47;3.80;;;11.40;73.80;;;;;;4180351;28;20164;-76
2022/04/12 07:24:43;;;;;;;7.40;3.53;;;11.50;72.90;;;;;;4180823;28;20152;-77
2022/04/12 07:26:45;;;;;;;5.05;3.45;;;11.50;72.50;;;;;;4189581;28;20062;-76
2022/04/12 07:28:46;;;;;;;3.70;3.13;;;11.50;72.40;;;;;;4186364;28;20875;-76
2022/04/12 07:30:48;;;;;;;6.68;3.70;;;11.50;71.30;;;;;;4179825;28;20108;-76
2022/04/12 07:32:54;;;;;;;5.50;3.35;;;11.50;72.30;;;;;;4179223;28;20061;-76
2022/04/12 07:34:55;;;;;;;4.47;3.20;;;11.50;71.60;;;;;;4198045;28;20178;-76
2022/04/12 07:37:00;;;;;;;6.05;4.03;;;11.50;72.20;;;;;;4179906;28;20057;-76
2022/04/12 07:39:02;;;;;;;5.68;3.78;;;11.50;72.00;;;;;;4163763;28;20062;-77
2022/04/12 07:41:07;;;;;;;9.60;2.83;;;11.60;71.70;;;;;;4192781;28;20056;-76
2022/04/12 07:43:09;;;;;;;7.78;2.95;;;11.70;72.60;;;;;;4179409;28;20057;-76
2022/04/12 07:45:11;;;;;;;4.85;3.47;;;11.80;71.80;;;;;;4197977;28;20057;-77
2022/04/12 07:47:13;;;;;;;6.35;3.45;;;11.80;71.60;;;;;;4181306;28;20156;-77
2022/04/12 07:49:15;;;;;;;3.50;3.20;;;12.00;70.70;;;;;;4194440;28;20061;-77
2022/04/12 07:51:17;;;;;;;5.88;3.13;;;12.00;70.30;;;;;;4197085;28;20045;-77
2022/04/12 07:53:18;;;;;;;3.17;2.75;;;12.00;70.50;;;;;;4198257;28;20049;-78
2022/04/12 07:55:23;;;;;;;3.75;3.35;;;12.10;69.20;;;;;;4198214;28;20726;-77
2022/04/12 07:57:29;;;;;;;3.63;3.13;;;12.30;70.20;;;;;;4198328;28;20099;-76
2022/04/12 07:59:31;;;;;;;3.65;2.80;;;12.40;70.30;;;;;;4194002;28;20061;-76
2022/04/12 08:01:33;;;;;;;4.72;2.97;;;12.50;69.60;;;;;;4194542;28;21243;-76
2022/04/12 08:03:36;;;;;;;7.82;2.90;;;12.60;70.50;;;;;;4197975;28;20052;-76
2022/04/12 08:05:38;;;;;;;2.95;2.65;;;12.70;68.10;;;;;;4198478;28;20065;-76
2022/04/12 08:07:47;;;;;;;4.63;2.72;;;12.80;67.50;;;;;;4185638;28;20096;-77
2022/04/12 08:09:49;;;;;;;4.80;2.30;;;12.90;67.20;;;;;;4179860;28;20808;-76
2022/04/12 08:11:51;;;;;;;3.10;2.42;;;13.00;67.80;;;;;;4197498;28;20057;-77
2022/04/12 08:13:53;;;;;;;4.10;2.10;;;13.10;66.70;;;;;;4198445;28;20057;-77
2022/04/12 08:15:55;;;;;;;4.10;2.50;;;13.20;64.80;;;;;;4197957;28;20061;-77
2022/04/12 08:17:57;;;;;;;3.25;1.90;;;13.40;62.20;;;;;;4198128;28;20065;-77
2022/04/12 08:19:59;;;;;;;5.80;2.33;;;13.50;61.90;;;;;;4188444;28;20052;-77
2022/04/12 08:22:01;;;;;;;2.80;2.47;;;13.60;62.10;;;;;;4177968;28;20777;-77
2022/04/12 08:24:04;;;;;;;2.83;1.83;;;13.80;61.10;;;;;;4202700;22;20051;-70
2022/04/12 08:26:07;;;;;;;5.25;1.98;;;13.80;62.00;;;;;;4193746;28;20065;-68
2022/04/12 08:28:09;;;;;;;3.60;2.58;;;13.80;61.30;;;;;;4195122;28;20056;-68
2022/04/12 08:30:11;;;;;;;4.90;2.97;;;13.80;62.60;;;;;;4182842;28;20062;-67
2022/04/12 08:32:13;;;;;;;2.58;1.90;;;13.90;62.80;;;;;;4178212;28;20068;-67
2022/04/12 08:34:15;;;;;;;2.92;2.22;;;13.80;62.70;;;;;;4179371;28;20062;-66
2022/04/12 08:36:20;;;;;;;2.22;1.90;;;14.00;59.90;;;;;;4170436;28;20152;-70
2022/04/12 08:38:26;;;;;;;3.38;1.88;;;14.10;61.10;;;;;;4171072;28;20093;-69
2022/04/12 08:40:29;;;;;;;2.45;1.65;;;14.20;61.00;;;;;;4174172;28;20151;-69
2022/04/12 08:42:31;;;;;;;4.72;2.08;;;14.30;58.50;;;;;;4173453;28;20790;-69
2022/04/12 08:44:36;;;;;;;1.70;1.55;;;14.40;58.30;;;;;;4158445;28;20098;-69
2022/04/12 08:46:44;;;;;;;2.30;1.35;;;14.60;57.60;;;;;;4173691;28;20880;-71
2022/04/12 08:48:47;;;;;;;2.08;1.58;;;14.70;57.20;;;;;;4173569;28;20061;-67
2022/04/12 08:50:49;;;;;;;1.45;1.35;;;14.80;58.20;;;;;;4183286;28;20057;-66
2022/04/12 08:52:54;;;;;;;3.88;1.90;;;14.90;57.70;;;;;;4185891;28;20058;-65
2022/04/12 08:54:56;;;;;;;3.35;2.28;;;15.10;58.10;;;;;;4170556;28;20068;-67
2022/04/12 08:56:58;;;;;;;3.70;2.10;;;15.20;57.00;;;;;;4172048;28;20854;-66
2022/04/12 08:59:00;;;;;;;1.90;1.60;;;15.30;58.00;;;;;;4172563;28;20064;-66
2022/04/12 09:01:12;;;;;;;2.30;1.52;;;15.50;57.00;;;;;;4171200;28;20338;-66
2022/04/12 09:03:15;;;;;;;2.55;1.90;;;15.50;57.70;;;;;;4173496;28;20128;-67
2022/04/12 09:05:17;;;;;;;1.73;1.38;;;15.60;56.20;;;;;;4168671;28;20057;-67
2022/04/12 09:07:26;;;;;;;1.60;1.42;;;15.60;55.40;;;;;;4177558;28;20715;-67
2022/04/12 09:09:29;;;;;;;2.88;1.35;;;15.60;54.90;;;;;;4177229;28;20136;-67
2022/04/12 09:11:34;;;;;;;7.57;1.42;;;15.60;53.70;;;;;;4183684;28;20099;-66
2022/04/12 09:13:36;;;;;;;3.55;1.08;;;15.60;55.30;;;;;;4172123;28;20624;-68
2022/04/12 09:15:45;;;;;;;1.23;1.00;;;15.50;55.10;;;;;;4179726;28;20057;-66
2022/04/12 09:18:09;;;;;;;3.53;1.10;;;15.50;54.60;;;;;;4170801;28;20062;-65
2022/04/12 09:20:13;;;;;;;1.67;1.27;;;15.60;56.30;;;;;;4171650;28;20774;-66
2022/04/12 09:22:21;;;;;;;1.50;1.40;;;15.60;56.20;;;;;;4176813;28;20058;-66
2022/04/12 09:24:23;;;;;;;1.60;1.27;;;15.70;56.00;;;;;;4172673;28;20089;-67
2022/04/12 09:26:27;;;;;;;3.17;1.20;;;15.90;54.20;;;;;;4176813;28;20752;-66
2022/04/12 09:28:42;;;;;;;1.67;1.40;;;16.10;55.10;;;;;;4171761;28;20161;-65
2022/04/12 09:30:58;;;;;;;4.15;1.25;;;16.20;55.20;;;;;;4167363;28;20058;-66
2022/04/12 09:33:00;;;;;;;2.85;1.50;;;16.30;56.00;;;;;;4171628;28;20121;-67
2022/04/12 09:35:02;;;;;;;1.15;1.08;;;16.40;55.50;;;;;;4170160;28;20871;-67
2022/04/12 09:37:16;;;;;;;2.80;1.27;;;16.50;52.80;;;;;;4169951;28;20061;-67
2022/04/12 09:39:19;;;;;;;3.00;1.75;;;16.70;52.00;;;;;;4173023;28;20914;-65
2022/04/12 09:41:23;;;;;;;1.67;1.15;;;16.80;51.80;;;;;;4172618;28;20058;-64
2022/04/12 09:43:25;;;;;;;2.55;1.20;;;16.90;51.60;;;;;;4177281;28;20083;-64
2022/04/12 09:45:30;;;;;;;1.65;1.20;;;16.90;51.00;;;;;;4169327;28;20887;-64
2022/04/12 09:47:32;;;;;;;3.05;1.20;;;17.00;50.00;;;;;;4169041;28;20109;-64
2022/04/12 09:49:54;;;;;;;3.78;1.40;;;17.00;49.80;;;;;;4166363;28;20092;-64
2022/04/12 09:51:56;;;;;;;1.80;1.10;;;17.10;50.20;;;;;;4168282;28;20057;-63
2022/04/12 09:53:57;;;;;;;4.55;2.50;;;17.30;50.20;;;;;;4175271;28;20803;-65
2022/04/12 09:56:12;;;;;;;6.95;3.28;;;17.40;54.20;;;;;;4166834;28;20161;-64
2022/04/12 09:58:16;;;;;;;7.88;3.20;;;17.40;55.80;;;;;;4168201;28;20057;-65
2022/04/12 10:00:18;;;;;;;4.72;2.95;;;17.30;56.00;;;;;;4170200;28;20190;-64
2022/04/12 10:02:21;;;;;;;4.60;2.78;;;17.20;56.80;;;;;;4166025;28;20104;-64
2022/04/12 10:04:24;;;;;;;3.95;2.80;;;17.30;56.50;;;;;;4172489;28;20057;-64
2022/04/12 10:06:27;;;;;;;3.92;2.83;;;17.10;57.10;;;;;;4171647;28;20068;-64
2022/04/12 10:08:33;;;;;;;5.38;2.80;;;17.10;57.10;;;;;;4166385;28;20058;-64
2022/04/12 10:10:35;;;;;;;5.05;3.30;;;17.00;57.20;;;;;;4170574;28;20068;-63
2022/04/12 10:12:37;;;;;;;2.83;2.55;;;17.00;57.20;;;;;;4170051;28;20649;-63
2022/04/12 10:14:39;;;;;;;3.80;3.38;;;17.10;57.50;;;;;;4174487;28;20058;-63
2022/04/12 10:16:46;;;;;;;12.57;3.05;;;17.20;57.10;;;;;;4173356;28;20077;-64
2022/04/12 10:18:49;;;;;;;7.30;2.40;;;17.20;56.70;;;;;;4172259;28;20142;-63
2022/04/12 10:20:51;;;;;;;3.65;2.60;;;17.30;57.30;;;;;;4174842;28;20054;-65
2022/04/12 10:22:56;;;;;;;7.72;3.25;;;17.30;57.30;;;;;;4175890;28;20692;-65
2022/04/12 10:24:59;;;;;;;5.18;3.50;;;17.30;57.50;;;;;;4169816;28;20160;-65
2022/04/12 10:27:02;;;;;;;6.50;3.40;;;17.40;57.40;;;;;;4168800;28;20056;-65
2022/04/12 10:29:06;;;;;;;4.93;3.03;;;17.30;58.10;;;;;;4175472;28;20096;-65
2022/04/12 10:31:14;;;;;;;6.53;3.78;;;17.40;58.70;;;;;;4175626;28;20109;-64
2022/04/12 10:33:36;;;;;;;5.80;3.70;;;17.40;58.90;;;;;;4170549;28;20754;-63
2022/04/12 10:35:44;;;;;;;5.97;3.28;;;17.50;58.30;;;;;;4166421;28;20053;-63
2022/04/12 10:37:46;;;;;;;9.73;3.53;;;17.50;58.60;;;;;;4174248;28;20068;-64
2022/04/12 10:40:10;;;;;;;4.05;3.33;;;17.50;58.20;;;;;;4176401;28;20060;-63
2022/04/12 10:42:23;;;;;;;6.18;3.83;;;17.50;58.10;;;;;;4173512;28;20061;-63
2022/04/12 10:44:25;;;;;;;3.30;3.00;;;17.50;58.00;;;;;;4170966;28;20069;-64
2022/04/12 10:46:46;;;;;;;3.92;3.50;;;17.50;58.20;;;;;;4172680;28;20057;-63
2022/04/12 10:48:55;;;;;;;4.22;3.25;;;17.60;57.60;;;;;;4174852;28;20054;-64